sensor_id;sensor_type;location;lat;lon;timestamp;temperature;humidity
5023;DHT22;2530;47.990;7.866;2024-03-25T00:01:38;4.50;99.90
5023;DHT22;2530;47.990;7.866;2024-03-25T00:04:03;4.50;99.90
5023;DHT22;2530;47.990;7.866;2024-03-25T00:06:29;4.80;99.90
5023;DHT22;2530;47.990;7.866;2024-03-25T00:09:01;5.00;99.90
5023;DHT22;2530;47.990;7.866;2024-03-25T00:11:27;4.50;99.90
5023;DHT22;2530;47.990;7.866;2024-03-25T00:13:53;5.00;99.90
5023;DHT22;2530;47.990;7.866;2024-03-25T00:16:18;4.80;99.90
5023;DHT22;2530;47.990;7.866;2024-03-25T00:18:44;5.00;99.90
5023;DHT22;2530;47.990;7.866;2024-03-25T00:21:09;4.70;99.90
5023;DHT22;2530;47.990;7.866;2024-03-25T00:26:01;5.20;99.90
5023;DHT22;2530;47.990;7.866;2024-03-25T00:28:26;5.50;99.90
5023;DHT22;2530;47.990;7.866;2024-03-25T00:30:52;5.30;99.90
5023;DHT22;2530;47.990;7.866;2024-03-25T00:33:17;5.50;99.90
5023;DHT22;2530;47.990;7.866;2024-03-25T00:35:43;5.30;99.90
5023;DHT22;2530;47.990;7.866;2024-03-25T00:38:11;5.50;99.90
5023;DHT22;2530;47.990;7.866;2024-03-25T00:40:36;5.10;99.90
5023;DHT22;2530;47.990;7.866;2024-03-25T00:43:02;4.50;99.90
5023;DHT22;2530;47.990;7.866;2024-03-25T00:45:28;5.10;99.90
5023;DHT22;2530;47.990;7.866;2024-03-25T00:47:56;4.90;99.90
5023;DHT22;2530;47.990;7.866;2024-03-25T00:50:23;4.30;99.90
5023;DHT22;2530;47.990;7.866;2024-03-25T00:52:49;4.70;99.90
5023;DHT22;2530;47.990;7.866;2024-03-25T00:55:14;4.50;99.90
5023;DHT22;2530;47.990;7.866;2024-03-25T00:57:40;4.80;99.90
5023;DHT22;2530;47.990;7.866;2024-03-25T01:00:07;4.60;99.90
5023;DHT22;2530;47.990;7.866;2024-03-25T01:02:33;4.40;99.90
5023;DHT22;2530;47.990;7.866;2024-03-25T01:04:58;4.60;99.90
5023;DHT22;2530;47.990;7.866;2024-03-25T01:07:25;4.50;99.90
5023;DHT22;2530;47.990;7.866;2024-03-25T01:09:51;4.50;99.90
5023;DHT22;2530;47.990;7.866;2024-03-25T01:12:16;3.90;99.90
5023;DHT22;2530;47.990;7.866;2024-03-25T01:14:42;4.50;99.90
5023;DHT22;2530;47.990;7.866;2024-03-25T01:17:07;4.10;99.90
5023;DHT22;2530;47.990;7.866;2024-03-25T01:19:33;4.60;99.90
5023;DHT22;2530;47.990;7.866;2024-03-25T01:21:59;4.20;99.90
5023;DHT22;2530;47.990;7.866;2024-03-25T01:24:24;4.20;99.90
5023;DHT22;2530;47.990;7.866;2024-03-25T01:26:50;4.50;99.90
5023;DHT22;2530;47.990;7.866;2024-03-25T01:29:16;4.50;99.90
5023;DHT22;2530;47.990;7.866;2024-03-25T01:31:43;4.60;99.90
5023;DHT22;2530;47.990;7.866;2024-03-25T01:34:09;4.50;99.90
5023;DHT22;2530;47.990;7.866;2024-03-25T01:36:35;4.40;99.90
5023;DHT22;2530;47.990;7.866;2024-03-25T01:39:01;4.40;99.90
5023;DHT22;2530;47.990;7.866;2024-03-25T01:43:52;4.50;99.90
5023;DHT22;2530;47.990;7.866;2024-03-25T01:46:18;4.60;99.90
5023;DHT22;2530;47.990;7.866;2024-03-25T01:48:45;4.20;99.90
5023;DHT22;2530;47.990;7.866;2024-03-25T01:51:13;4.20;99.90
5023;DHT22;2530;47.990;7.866;2024-03-25T01:53:40;4.20;99.90
5023;DHT22;2530;47.990;7.866;2024-03-25T01:56:06;4.50;99.90
5023;DHT22;2530;47.990;7.866;2024-03-25T01:58:33;4.50;99.90
5023;DHT22;2530;47.990;7.866;2024-03-25T02:00:59;4.50;99.90
5023;DHT22;2530;47.990;7.866;2024-03-25T02:03:27;4.50;99.90
5023;DHT22;2530;47.990;7.866;2024-03-25T02:05:55;4.50;99.90
5023;DHT22;2530;47.990;7.866;2024-03-25T02:08:22;4.30;99.90
5023;DHT22;2530;47.990;7.866;2024-03-25T02:10:48;4.30;99.90
5023;DHT22;2530;47.990;7.866;2024-03-25T02:13:15;4.80;99.90
5023;DHT22;2530;47.990;7.866;2024-03-25T02:15:41;4.30;99.90
5023;DHT22;2530;47.990;7.866;2024-03-25T02:18:07;4.50;99.90
5023;DHT22;2530;47.990;7.866;2024-03-25T02:20:33;4.40;99.90
5023;DHT22;2530;47.990;7.866;2024-03-25T02:22:58;4.40;99.90
5023;DHT22;2530;47.990;7.866;2024-03-25T02:25:24;4.30;99.90
5023;DHT22;2530;47.990;7.866;2024-03-25T02:27:50;4.20;99.90
5023;DHT22;2530;47.990;7.866;2024-03-25T02:30:15;4.20;99.90
5023;DHT22;2530;47.990;7.866;2024-03-25T02:32:42;4.00;99.90
5023;DHT22;2530;47.990;7.866;2024-03-25T02:35:12;4.20;99.90
5023;DHT22;2530;47.990;7.866;2024-03-25T02:37:39;4.40;99.90
5023;DHT22;2530;47.990;7.866;2024-03-25T02:40:07;4.20;99.90
5023;DHT22;2530;47.990;7.866;2024-03-25T02:42:33;4.50;99.90
5023;DHT22;2530;47.990;7.866;2024-03-25T02:44:59;4.30;99.90
5023;DHT22;2530;47.990;7.866;2024-03-25T02:47:25;4.90;99.90
5023;DHT22;2530;47.990;7.866;2024-03-25T02:49:50;4.00;99.90
5023;DHT22;2530;47.990;7.866;2024-03-25T02:52:17;3.90;99.90
5023;DHT22;2530;47.990;7.866;2024-03-25T02:54:42;3.60;99.90
5023;DHT22;2530;47.990;7.866;2024-03-25T02:57:08;4.00;99.90
5023;DHT22;2530;47.990;7.866;2024-03-25T02:59:33;4.10;99.90
5023;DHT22;2530;47.990;7.866;2024-03-25T03:01:59;3.00;99.90
5023;DHT22;2530;47.990;7.866;2024-03-25T03:04:24;3.70;99.90
5023;DHT22;2530;47.990;7.866;2024-03-25T03:06:50;4.00;99.90
5023;DHT22;2530;47.990;7.866;2024-03-25T03:09:15;4.10;99.90
5023;DHT22;2530;47.990;7.866;2024-03-25T03:11:41;4.50;99.90
5023;DHT22;2530;47.990;7.866;2024-03-25T03:14:07;4.20;99.90
5023;DHT22;2530;47.990;7.866;2024-03-25T03:16:32;4.20;99.90
5023;DHT22;2530;47.990;7.866;2024-03-25T03:18:58;4.10;99.90
5023;DHT22;2530;47.990;7.866;2024-03-25T03:21:23;4.20;99.90
5023;DHT22;2530;47.990;7.866;2024-03-25T03:23:49;4.20;99.90
5023;DHT22;2530;47.990;7.866;2024-03-25T03:26:14;3.80;99.90
5023;DHT22;2530;47.990;7.866;2024-03-25T03:28:40;3.90;99.90
5023;DHT22;2530;47.990;7.866;2024-03-25T03:31:06;4.00;99.90
5023;DHT22;2530;47.990;7.866;2024-03-25T03:33:32;3.80;99.90
5023;DHT22;2530;47.990;7.866;2024-03-25T03:35:57;4.00;99.90
5023;DHT22;2530;47.990;7.866;2024-03-25T03:38:23;4.20;99.90
5023;DHT22;2530;47.990;7.866;2024-03-25T03:41:02;4.30;99.90
5023;DHT22;2530;47.990;7.866;2024-03-25T03:43:27;3.90;99.90
5023;DHT22;2530;47.990;7.866;2024-03-25T03:45:53;5.70;99.90
5023;DHT22;2530;47.990;7.866;2024-03-25T03:48:19;4.20;99.90
5023;DHT22;2530;47.990;7.866;2024-03-25T03:50:45;4.00;99.90
5023;DHT22;2530;47.990;7.866;2024-03-25T03:53:11;3.90;99.90
5023;DHT22;2530;47.990;7.866;2024-03-25T03:55:37;3.90;99.90
5023;DHT22;2530;47.990;7.866;2024-03-25T04:00:29;3.70;99.90
5023;DHT22;2530;47.990;7.866;2024-03-25T04:02:54;3.40;99.90
5023;DHT22;2530;47.990;7.866;2024-03-25T04:05:20;2.80;99.90
5023;DHT22;2530;47.990;7.866;2024-03-25T04:07:45;3.50;99.90
5023;DHT22;2530;47.990;7.866;2024-03-25T04:10:11;3.70;99.90
5023;DHT22;2530;47.990;7.866;2024-03-25T04:12:37;3.70;99.90
5023;DHT22;2530;47.990;7.866;2024-03-25T04:15:03;3.30;99.90
5023;DHT22;2530;47.990;7.866;2024-03-25T04:17:29;3.50;99.90
5023;DHT22;2530;47.990;7.866;2024-03-25T04:19:54;3.40;99.90
5023;DHT22;2530;47.990;7.866;2024-03-25T04:22:20;3.50;99.90
5023;DHT22;2530;47.990;7.866;2024-03-25T04:24:46;3.20;99.90
5023;DHT22;2530;47.990;7.866;2024-03-25T04:27:11;5.80;99.90
5023;DHT22;2530;47.990;7.866;2024-03-25T04:29:37;3.40;99.90
5023;DHT22;2530;47.990;7.866;2024-03-25T04:32:03;3.10;99.90
5023;DHT22;2530;47.990;7.866;2024-03-25T04:34:29;3.40;99.90
5023;DHT22;2530;47.990;7.866;2024-03-25T04:36:55;3.10;99.90
5023;DHT22;2530;47.990;7.866;2024-03-25T04:39:21;3.40;99.90
5023;DHT22;2530;47.990;7.866;2024-03-25T04:41:47;3.00;99.90
5023;DHT22;2530;47.990;7.866;2024-03-25T04:44:13;3.10;99.90
5023;DHT22;2530;47.990;7.866;2024-03-25T04:46:38;2.90;99.90
5023;DHT22;2530;47.990;7.866;2024-03-25T04:49:04;3.20;99.90
5023;DHT22;2530;47.990;7.866;2024-03-25T04:51:29;3.00;99.90
5023;DHT22;2530;47.990;7.866;2024-03-25T04:53:57;2.60;99.90
5023;DHT22;2530;47.990;7.866;2024-03-25T04:56:22;3.70;99.90
5023;DHT22;2530;47.990;7.866;2024-03-25T04:58:48;3.20;99.90
5023;DHT22;2530;47.990;7.866;2024-03-25T05:01:13;2.70;99.90
5023;DHT22;2530;47.990;7.866;2024-03-25T05:03:39;3.00;99.90
5023;DHT22;2530;47.990;7.866;2024-03-25T05:06:05;3.00;99.90
5023;DHT22;2530;47.990;7.866;2024-03-25T05:08:30;2.90;99.90
5023;DHT22;2530;47.990;7.866;2024-03-25T05:10:56;2.50;99.90
5023;DHT22;2530;47.990;7.866;2024-03-25T05:13:22;2.90;99.90
5023;DHT22;2530;47.990;7.866;2024-03-25T05:15:51;3.10;99.90
5023;DHT22;2530;47.990;7.866;2024-03-25T05:18:17;2.90;99.90
5023;DHT22;2530;47.990;7.866;2024-03-25T05:20:43;2.90;99.90
5023;DHT22;2530;47.990;7.866;2024-03-25T05:23:09;2.40;99.90
5023;DHT22;2530;47.990;7.866;2024-03-25T05:25:35;2.70;99.90
5023;DHT22;2530;47.990;7.866;2024-03-25T05:28:01;2.90;99.90
5023;DHT22;2530;47.990;7.866;2024-03-25T05:30:26;2.80;99.90
5023;DHT22;2530;47.990;7.866;2024-03-25T05:32:52;3.10;99.90
5023;DHT22;2530;47.990;7.866;2024-03-25T05:35:18;2.80;99.90
5023;DHT22;2530;47.990;7.866;2024-03-25T05:37:43;3.70;99.90
5023;DHT22;2530;47.990;7.866;2024-03-25T05:40:09;4.10;99.90
5023;DHT22;2530;47.990;7.866;2024-03-25T05:42:37;2.70;99.90
5023;DHT22;2530;47.990;7.866;2024-03-25T05:45:03;2.50;99.90
5023;DHT22;2530;47.990;7.866;2024-03-25T05:47:29;2.40;99.90
5023;DHT22;2530;47.990;7.866;2024-03-25T05:49:54;2.90;99.90
5023;DHT22;2530;47.990;7.866;2024-03-25T05:52:20;2.30;99.90
5023;DHT22;2530;47.990;7.866;2024-03-25T05:54:46;2.40;99.90
5023;DHT22;2530;47.990;7.866;2024-03-25T05:57:12;2.70;99.90
5023;DHT22;2530;47.990;7.866;2024-03-25T05:59:37;2.80;99.90
5023;DHT22;2530;47.990;7.866;2024-03-25T06:02:03;2.70;99.90
5023;DHT22;2530;47.990;7.866;2024-03-25T06:04:28;2.60;99.90
5023;DHT22;2530;47.990;7.866;2024-03-25T06:06:54;2.70;99.90
5023;DHT22;2530;47.990;7.866;2024-03-25T06:09:19;2.90;99.90
5023;DHT22;2530;47.990;7.866;2024-03-25T06:11:45;2.80;99.90
5023;DHT22;2530;47.990;7.866;2024-03-25T06:14:10;2.90;99.90
5023;DHT22;2530;47.990;7.866;2024-03-25T06:16:36;2.70;99.90
5023;DHT22;2530;47.990;7.866;2024-03-25T06:19:01;2.90;99.90
5023;DHT22;2530;47.990;7.866;2024-03-25T06:21:27;3.00;99.90
5023;DHT22;2530;47.990;7.866;2024-03-25T06:23:54;3.10;99.90
5023;DHT22;2530;47.990;7.866;2024-03-25T06:26:19;2.90;99.90
5023;DHT22;2530;47.990;7.866;2024-03-25T06:28:45;3.10;99.90
5023;DHT22;2530;47.990;7.866;2024-03-25T06:31:11;2.90;99.90
5023;DHT22;2530;47.990;7.866;2024-03-25T06:33:55;3.30;99.90
5023;DHT22;2530;47.990;7.866;2024-03-25T06:36:39;3.00;99.90
5023;DHT22;2530;47.990;7.866;2024-03-25T06:39:05;3.70;99.90
5023;DHT22;2530;47.990;7.866;2024-03-25T06:41:31;3.30;99.90
5023;DHT22;2530;47.990;7.866;2024-03-25T06:43:57;3.30;99.90
5023;DHT22;2530;47.990;7.866;2024-03-25T06:46:22;3.30;99.90
5023;DHT22;2530;47.990;7.866;2024-03-25T06:48:48;3.70;99.90
5023;DHT22;2530;47.990;7.866;2024-03-25T06:51:13;3.80;99.90
5023;DHT22;2530;47.990;7.866;2024-03-25T06:53:39;3.50;99.90
5023;DHT22;2530;47.990;7.866;2024-03-25T06:56:05;3.60;99.90
5023;DHT22;2530;47.990;7.866;2024-03-25T07:01:03;4.10;99.90
5023;DHT22;2530;47.990;7.866;2024-03-25T07:03:28;4.30;99.90
5023;DHT22;2530;47.990;7.866;2024-03-25T07:05:54;3.90;99.90
5023;DHT22;2530;47.990;7.866;2024-03-25T07:08:21;4.30;99.90
5023;DHT22;2530;47.990;7.866;2024-03-25T07:10:46;3.90;99.90
5023;DHT22;2530;47.990;7.866;2024-03-25T07:13:12;4.40;99.90
5023;DHT22;2530;47.990;7.866;2024-03-25T07:15:38;4.30;99.90
5023;DHT22;2530;47.990;7.866;2024-03-25T07:18:05;4.50;99.90
5023;DHT22;2530;47.990;7.866;2024-03-25T07:20:31;4.00;99.90
5023;DHT22;2530;47.990;7.866;2024-03-25T07:22:57;4.60;99.90
5023;DHT22;2530;47.990;7.866;2024-03-25T07:25:23;6.20;99.90
5023;DHT22;2530;47.990;7.866;2024-03-25T07:27:49;4.60;99.90
5023;DHT22;2530;47.990;7.866;2024-03-25T07:30:15;5.00;99.90
5023;DHT22;2530;47.990;7.866;2024-03-25T07:32:41;6.90;99.90
5023;DHT22;2530;47.990;7.866;2024-03-25T07:35:06;5.40;99.90
5023;DHT22;2530;47.990;7.866;2024-03-25T07:37:34;6.00;99.90
5023;DHT22;2530;47.990;7.866;2024-03-25T07:39:59;5.50;99.90
5023;DHT22;2530;47.990;7.866;2024-03-25T07:42:25;5.10;99.90
5023;DHT22;2530;47.990;7.866;2024-03-25T07:44:50;5.20;99.90
5023;DHT22;2530;47.990;7.866;2024-03-25T07:47:16;5.70;99.90
5023;DHT22;2530;47.990;7.866;2024-03-25T07:49:41;5.70;99.90
5023;DHT22;2530;47.990;7.866;2024-03-25T07:52:07;5.90;99.90
5023;DHT22;2530;47.990;7.866;2024-03-25T07:54:32;6.30;99.90
5023;DHT22;2530;47.990;7.866;2024-03-25T07:59:24;6.40;99.90
5023;DHT22;2530;47.990;7.866;2024-03-25T08:01:50;6.30;99.90
5023;DHT22;2530;47.990;7.866;2024-03-25T08:04:16;6.20;99.90
5023;DHT22;2530;47.990;7.866;2024-03-25T08:06:42;6.10;99.90
5023;DHT22;2530;47.990;7.866;2024-03-25T08:09:07;6.70;99.90
5023;DHT22;2530;47.990;7.866;2024-03-25T08:11:34;6.60;99.90
5023;DHT22;2530;47.990;7.866;2024-03-25T08:14:00;6.10;99.90
5023;DHT22;2530;47.990;7.866;2024-03-25T08:16:25;6.70;99.90
5023;DHT22;2530;47.990;7.866;2024-03-25T08:18:51;6.80;99.90
5023;DHT22;2530;47.990;7.866;2024-03-25T08:21:17;6.50;99.90
5023;DHT22;2530;47.990;7.866;2024-03-25T08:23:45;6.40;99.90
5023;DHT22;2530;47.990;7.866;2024-03-25T08:26:11;6.70;99.90
5023;DHT22;2530;47.990;7.866;2024-03-25T08:28:37;7.20;99.90
5023;DHT22;2530;47.990;7.866;2024-03-25T08:31:03;6.70;99.90
5023;DHT22;2530;47.990;7.866;2024-03-25T08:33:29;7.40;99.90
5023;DHT22;2530;47.990;7.866;2024-03-25T08:35:54;7.10;99.90
5023;DHT22;2530;47.990;7.866;2024-03-25T08:38:20;7.80;99.90
5023;DHT22;2530;47.990;7.866;2024-03-25T08:40:45;7.70;99.90
5023;DHT22;2530;47.990;7.866;2024-03-25T08:43:11;7.50;99.90
5023;DHT22;2530;47.990;7.866;2024-03-25T08:45:36;6.70;99.90
5023;DHT22;2530;47.990;7.866;2024-03-25T08:48:02;7.40;99.90
5023;DHT22;2530;47.990;7.866;2024-03-25T08:50:27;7.80;99.90
5023;DHT22;2530;47.990;7.866;2024-03-25T08:52:53;7.90;99.90
5023;DHT22;2530;47.990;7.866;2024-03-25T08:55:19;7.50;99.90
5023;DHT22;2530;47.990;7.866;2024-03-25T08:57:45;8.10;99.90
5023;DHT22;2530;47.990;7.866;2024-03-25T09:00:11;8.70;99.90
5023;DHT22;2530;47.990;7.866;2024-03-25T09:02:37;8.70;99.90
5023;DHT22;2530;47.990;7.866;2024-03-25T09:05:03;8.20;99.90
5023;DHT22;2530;47.990;7.866;2024-03-25T09:09:58;8.90;99.90
5023;DHT22;2530;47.990;7.866;2024-03-25T09:12:42;9.10;99.90
5023;DHT22;2530;47.990;7.866;2024-03-25T09:15:08;8.50;99.90
5023;DHT22;2530;47.990;7.866;2024-03-25T09:17:35;9.10;99.90
5023;DHT22;2530;47.990;7.866;2024-03-25T09:22:38;9.50;99.90
5023;DHT22;2530;47.990;7.866;2024-03-25T09:25:04;9.30;99.90
5023;DHT22;2530;47.990;7.866;2024-03-25T09:27:29;9.40;99.90
5023;DHT22;2530;47.990;7.866;2024-03-25T09:29:55;9.60;99.90
5023;DHT22;2530;47.990;7.866;2024-03-25T09:32:20;9.50;99.90
5023;DHT22;2530;47.990;7.866;2024-03-25T09:34:46;9.70;99.90
5023;DHT22;2530;47.990;7.866;2024-03-25T09:37:12;9.80;99.90
5023;DHT22;2530;47.990;7.866;2024-03-25T09:39:38;9.40;99.90
5023;DHT22;2530;47.990;7.866;2024-03-25T09:42:06;9.50;99.90
5023;DHT22;2530;47.990;7.866;2024-03-25T09:44:32;9.70;99.90
5023;DHT22;2530;47.990;7.866;2024-03-25T09:46:59;9.90;99.90
5023;DHT22;2530;47.990;7.866;2024-03-25T09:49:26;10.10;99.90
5023;DHT22;2530;47.990;7.866;2024-03-25T09:51:52;10.20;99.90
5023;DHT22;2530;47.990;7.866;2024-03-25T09:54:20;10.20;99.90
5023;DHT22;2530;47.990;7.866;2024-03-25T09:56:47;8.50;99.90
5023;DHT22;2530;47.990;7.866;2024-03-25T09:59:13;10.10;99.90
5023;DHT22;2530;47.990;7.866;2024-03-25T10:01:39;10.30;99.90
5023;DHT22;2530;47.990;7.866;2024-03-25T10:04:11;10.20;99.90
5023;DHT22;2530;47.990;7.866;2024-03-25T10:06:36;10.20;99.90
5023;DHT22;2530;47.990;7.866;2024-03-25T10:09:06;9.80;99.90
5023;DHT22;2530;47.990;7.866;2024-03-25T10:11:32;10.30;99.90
5023;DHT22;2530;47.990;7.866;2024-03-25T10:14:01;10.60;99.90
5023;DHT22;2530;47.990;7.866;2024-03-25T10:16:29;10.60;99.90
5023;DHT22;2530;47.990;7.866;2024-03-25T10:18:55;10.70;99.90
5023;DHT22;2530;47.990;7.866;2024-03-25T10:21:21;10.90;99.90
5023;DHT22;2530;47.990;7.866;2024-03-25T10:23:48;10.40;99.90
5023;DHT22;2530;47.990;7.866;2024-03-25T10:26:30;10.90;99.90
5023;DHT22;2530;47.990;7.866;2024-03-25T10:29:06;10.70;99.90
5023;DHT22;2530;47.990;7.866;2024-03-25T10:31:39;10.90;99.90
5023;DHT22;2530;47.990;7.866;2024-03-25T10:34:04;10.70;99.90
5023;DHT22;2530;47.990;7.866;2024-03-25T10:36:30;11.10;99.90
5023;DHT22;2530;47.990;7.866;2024-03-25T10:41:34;11.30;99.90
5023;DHT22;2530;47.990;7.866;2024-03-25T10:44:02;11.50;99.90
5023;DHT22;2530;47.990;7.866;2024-03-25T10:46:32;11.70;99.90
5023;DHT22;2530;47.990;7.866;2024-03-25T10:49:06;11.70;99.90
5023;DHT22;2530;47.990;7.866;2024-03-25T10:51:38;11.70;99.90
5023;DHT22;2530;47.990;7.866;2024-03-25T10:54:05;10.80;99.90
5023;DHT22;2530;47.990;7.866;2024-03-25T10:56:31;12.60;99.90
5023;DHT22;2530;47.990;7.866;2024-03-25T10:58:57;12.30;99.90
5023;DHT22;2530;47.990;7.866;2024-03-25T11:01:23;12.20;99.90
5023;DHT22;2530;47.990;7.866;2024-03-25T11:03:49;11.70;99.90
5023;DHT22;2530;47.990;7.866;2024-03-25T11:06:15;12.10;99.90
5023;DHT22;2530;47.990;7.866;2024-03-25T11:08:42;12.00;99.90
5023;DHT22;2530;47.990;7.866;2024-03-25T11:11:12;12.40;99.90
5023;DHT22;2530;47.990;7.866;2024-03-25T11:13:38;12.50;99.90
5023;DHT22;2530;47.990;7.866;2024-03-25T11:16:06;13.20;99.90
5023;DHT22;2530;47.990;7.866;2024-03-25T11:18:33;15.30;99.90
5023;DHT22;2530;47.990;7.866;2024-03-25T11:21:03;12.80;99.90
5023;DHT22;2530;47.990;7.866;2024-03-25T11:23:40;12.70;99.90
5023;DHT22;2530;47.990;7.866;2024-03-25T11:26:18;12.30;99.90
5023;DHT22;2530;47.990;7.866;2024-03-25T11:28:43;12.80;99.90
5023;DHT22;2530;47.990;7.866;2024-03-25T11:31:11;14.00;99.90
5023;DHT22;2530;47.990;7.866;2024-03-25T11:33:39;13.80;99.90
5023;DHT22;2530;47.990;7.866;2024-03-25T11:36:05;13.00;99.90
5023;DHT22;2530;47.990;7.866;2024-03-25T11:38:31;13.80;99.90
5023;DHT22;2530;47.990;7.866;2024-03-25T11:40:56;14.70;99.90
5023;DHT22;2530;47.990;7.866;2024-03-25T11:43:23;15.00;99.90
5023;DHT22;2530;47.990;7.866;2024-03-25T11:45:49;14.80;1.00
5023;DHT22;2530;47.990;7.866;2024-03-25T11:48:15;14.80;1.00
5023;DHT22;2530;47.990;7.866;2024-03-25T11:50:44;17.00;1.00
5023;DHT22;2530;47.990;7.866;2024-03-25T12:01:07;16.70;1.00
5023;DHT22;2530;47.990;7.866;2024-03-25T12:11:52;16.90;1.00
5023;DHT22;2530;47.990;7.866;2024-03-25T12:16:46;16.60;1.00
5023;DHT22;2530;47.990;7.866;2024-03-25T12:19:16;16.10;1.00
5023;DHT22;2530;47.990;7.866;2024-03-25T12:21:43;15.80;1.00
5023;DHT22;2530;47.990;7.866;2024-03-25T12:24:10;16.10;1.00
5023;DHT22;2530;47.990;7.866;2024-03-25T12:26:39;16.30;1.00
5023;DHT22;2530;47.990;7.866;2024-03-25T12:29:29;15.70;1.00
5023;DHT22;2530;47.990;7.866;2024-03-25T12:31:58;15.80;1.00
5023;DHT22;2530;47.990;7.866;2024-03-25T12:39:47;16.40;1.00
5023;DHT22;2530;47.990;7.866;2024-03-25T12:44:42;16.50;1.00
5023;DHT22;2530;47.990;7.866;2024-03-25T12:47:07;15.90;1.00
5023;DHT22;2530;47.990;7.866;2024-03-25T12:49:33;16.70;1.00
5023;DHT22;2530;47.990;7.866;2024-03-25T12:51:58;15.80;1.00
5023;DHT22;2530;47.990;7.866;2024-03-25T12:54:24;17.10;1.00
5023;DHT22;2530;47.990;7.866;2024-03-25T12:56:49;16.80;1.00
5023;DHT22;2530;47.990;7.866;2024-03-25T12:59:15;15.50;1.00
5023;DHT22;2530;47.990;7.866;2024-03-25T13:01:41;15.70;1.00
5023;DHT22;2530;47.990;7.866;2024-03-25T13:04:09;16.10;1.00
5023;DHT22;2530;47.990;7.866;2024-03-25T13:06:35;15.90;1.00
5023;DHT22;2530;47.990;7.866;2024-03-25T13:09:00;17.00;1.00
5023;DHT22;2530;47.990;7.866;2024-03-25T13:11:26;16.80;1.00
5023;DHT22;2530;47.990;7.866;2024-03-25T13:13:52;17.20;1.00
5023;DHT22;2530;47.990;7.866;2024-03-25T13:16:17;16.40;1.00
5023;DHT22;2530;47.990;7.866;2024-03-25T13:18:43;16.50;1.00
5023;DHT22;2530;47.990;7.866;2024-03-25T13:21:08;16.80;1.00
5023;DHT22;2530;47.990;7.866;2024-03-25T13:23:34;16.50;1.00
5023;DHT22;2530;47.990;7.866;2024-03-25T13:25:59;16.70;1.00
5023;DHT22;2530;47.990;7.866;2024-03-25T13:28:25;16.30;1.00
5023;DHT22;2530;47.990;7.866;2024-03-25T13:30:53;16.90;1.00
5023;DHT22;2530;47.990;7.866;2024-03-25T13:33:19;18.20;1.00
5023;DHT22;2530;47.990;7.866;2024-03-25T13:35:44;16.80;1.00
5023;DHT22;2530;47.990;7.866;2024-03-25T13:38:10;17.20;1.00
5023;DHT22;2530;47.990;7.866;2024-03-25T13:40:36;17.50;1.00
5023;DHT22;2530;47.990;7.866;2024-03-25T13:43:01;17.70;1.00
5023;DHT22;2530;47.990;7.866;2024-03-25T13:45:27;17.10;1.00
5023;DHT22;2530;47.990;7.866;2024-03-25T13:47:52;17.50;1.00
5023;DHT22;2530;47.990;7.866;2024-03-25T13:50:18;17.60;1.00
5023;DHT22;2530;47.990;7.866;2024-03-25T13:52:47;17.40;1.00
5023;DHT22;2530;47.990;7.866;2024-03-25T13:55:13;18.00;1.00
5023;DHT22;2530;47.990;7.866;2024-03-25T13:57:38;18.20;1.00
5023;DHT22;2530;47.990;7.866;2024-03-25T14:00:04;17.60;1.00
5023;DHT22;2530;47.990;7.866;2024-03-25T14:02:33;17.40;1.00
5023;DHT22;2530;47.990;7.866;2024-03-25T14:05:01;17.30;1.00
5023;DHT22;2530;47.990;7.866;2024-03-25T14:07:27;16.80;1.00
5023;DHT22;2530;47.990;7.866;2024-03-25T14:09:52;17.00;1.00
5023;DHT22;2530;47.990;7.866;2024-03-25T14:12:18;17.90;1.00
5023;DHT22;2530;47.990;7.866;2024-03-25T14:14:47;18.20;1.00
5023;DHT22;2530;47.990;7.866;2024-03-25T14:17:12;17.90;1.00
5023;DHT22;2530;47.990;7.866;2024-03-25T14:19:38;17.40;1.00
5023;DHT22;2530;47.990;7.866;2024-03-25T14:22:03;17.60;1.00
5023;DHT22;2530;47.990;7.866;2024-03-25T14:26:55;18.40;1.00
5023;DHT22;2530;47.990;7.866;2024-03-25T14:29:20;17.90;1.00
5023;DHT22;2530;47.990;7.866;2024-03-25T14:31:46;17.40;1.00
5023;DHT22;2530;47.990;7.866;2024-03-25T14:34:12;18.60;1.00
5023;DHT22;2530;47.990;7.866;2024-03-25T14:36:37;17.50;1.00
5023;DHT22;2530;47.990;7.866;2024-03-25T14:39:03;17.90;1.00
5023;DHT22;2530;47.990;7.866;2024-03-25T14:41:38;18.20;1.00
5023;DHT22;2530;47.990;7.866;2024-03-25T14:44:04;17.80;1.00
5023;DHT22;2530;47.990;7.866;2024-03-25T14:46:29;17.70;1.00
5023;DHT22;2530;47.990;7.866;2024-03-25T14:48:55;18.40;1.00
5023;DHT22;2530;47.990;7.866;2024-03-25T14:51:20;18.70;1.00
5023;DHT22;2530;47.990;7.866;2024-03-25T14:53:46;18.50;1.00
5023;DHT22;2530;47.990;7.866;2024-03-25T14:56:11;18.00;1.00
5023;DHT22;2530;47.990;7.866;2024-03-25T14:58:37;17.70;1.00
5023;DHT22;2530;47.990;7.866;2024-03-25T15:01:03;17.80;1.00
5023;DHT22;2530;47.990;7.866;2024-03-25T15:03:28;17.80;1.00
5023;DHT22;2530;47.990;7.866;2024-03-25T15:05:54;18.60;1.00
5023;DHT22;2530;47.990;7.866;2024-03-25T15:08:19;17.80;1.00
5023;DHT22;2530;47.990;7.866;2024-03-25T15:10:48;17.50;1.00
5023;DHT22;2530;47.990;7.866;2024-03-25T15:13:14;16.70;1.00
5023;DHT22;2530;47.990;7.866;2024-03-25T15:15:40;18.00;1.00
5023;DHT22;2530;47.990;7.866;2024-03-25T15:18:07;17.60;1.00
5023;DHT22;2530;47.990;7.866;2024-03-25T15:20:33;17.70;1.00
5023;DHT22;2530;47.990;7.866;2024-03-25T15:25:24;18.00;1.00
5023;DHT22;2530;47.990;7.866;2024-03-25T15:27:50;17.70;1.00
5023;DHT22;2530;47.990;7.866;2024-03-25T15:30:15;17.00;1.00
5023;DHT22;2530;47.990;7.866;2024-03-25T15:32:41;17.10;1.00
5023;DHT22;2530;47.990;7.866;2024-03-25T15:35:06;17.60;1.00
5023;DHT22;2530;47.990;7.866;2024-03-25T15:37:33;17.80;1.00
5023;DHT22;2530;47.990;7.866;2024-03-25T15:39:59;17.40;1.00
5023;DHT22;2530;47.990;7.866;2024-03-25T15:42:24;17.00;1.00
5023;DHT22;2530;47.990;7.866;2024-03-25T15:44:50;17.50;1.00
5023;DHT22;2530;47.990;7.866;2024-03-25T15:47:17;17.10;1.00
5023;DHT22;2530;47.990;7.866;2024-03-25T15:49:47;16.80;1.00
5023;DHT22;2530;47.990;7.866;2024-03-25T15:52:13;17.00;1.00
5023;DHT22;2530;47.990;7.866;2024-03-25T15:54:39;16.70;1.00
5023;DHT22;2530;47.990;7.866;2024-03-25T15:57:05;19.60;1.00
5023;DHT22;2530;47.990;7.866;2024-03-25T15:59:30;16.70;1.00
5023;DHT22;2530;47.990;7.866;2024-03-25T16:01:56;17.30;1.00
5023;DHT22;2530;47.990;7.866;2024-03-25T16:04:21;17.50;1.00
5023;DHT22;2530;47.990;7.866;2024-03-25T16:06:48;16.80;1.00
5023;DHT22;2530;47.990;7.866;2024-03-25T16:09:14;15.80;1.00
5023;DHT22;2530;47.990;7.866;2024-03-25T16:11:41;15.90;1.00
5023;DHT22;2530;47.990;7.866;2024-03-25T16:14:07;15.30;1.00
5023;DHT22;2530;47.990;7.866;2024-03-25T16:16:34;15.80;1.00
5023;DHT22;2530;47.990;7.866;2024-03-25T16:18:59;15.90;1.00
5023;DHT22;2530;47.990;7.866;2024-03-25T16:21:26;15.70;1.00
5023;DHT22;2530;47.990;7.866;2024-03-25T16:23:54;15.80;1.00
5023;DHT22;2530;47.990;7.866;2024-03-25T16:26:19;15.30;1.00
5023;DHT22;2530;47.990;7.866;2024-03-25T16:28:47;15.20;1.00
5023;DHT22;2530;47.990;7.866;2024-03-25T16:31:12;15.40;1.00
5023;DHT22;2530;47.990;7.866;2024-03-25T16:33:38;15.10;1.00
5023;DHT22;2530;47.990;7.866;2024-03-25T16:36:06;14.90;1.00
5023;DHT22;2530;47.990;7.866;2024-03-25T16:38:31;14.90;1.00
5023;DHT22;2530;47.990;7.866;2024-03-25T16:40:58;14.40;1.00
5023;DHT22;2530;47.990;7.866;2024-03-25T16:43:23;14.10;1.00
5023;DHT22;2530;47.990;7.866;2024-03-25T16:45:49;14.10;1.00
5023;DHT22;2530;47.990;7.866;2024-03-25T16:48:14;13.90;1.00
5023;DHT22;2530;47.990;7.866;2024-03-25T16:50:41;13.40;1.00
5023;DHT22;2530;47.990;7.866;2024-03-25T16:53:07;13.80;1.00
5023;DHT22;2530;47.990;7.866;2024-03-25T16:55:32;13.40;1.00
5023;DHT22;2530;47.990;7.866;2024-03-25T16:57:58;13.80;1.00
5023;DHT22;2530;47.990;7.866;2024-03-25T17:00:23;13.20;1.00
5023;DHT22;2530;47.990;7.866;2024-03-25T17:02:49;13.20;1.00